createdAt,value
2022-09-25T00:02:04.277Z,15.80
2022-09-25T00:04:32.161Z,15.59
2022-09-25T00:07:00.938Z,15.75
2022-09-25T00:09:28.423Z,15.93
2022-09-25T00:11:55.897Z,16.05
2022-09-25T00:14:23.357Z,15.93
2022-09-25T00:16:50.866Z,15.67
2022-09-25T00:19:48.420Z,15.78
2022-09-25T00:22:17.314Z,15.81
2022-09-25T00:24:44.861Z,15.98
2022-09-25T00:27:12.776Z,15.99
2022-09-25T00:29:41.093Z,15.78
2022-09-25T00:32:10.830Z,16.09
2022-09-25T00:34:39.318Z,16.08
2022-09-25T00:37:07.776Z,16.19
2022-09-25T00:39:36.590Z,16.29
2022-09-25T00:42:04.381Z,16.35
2022-09-25T00:44:56.338Z,16.34
2022-09-25T00:47:31.704Z,16.28
2022-09-25T00:50:03.638Z,16.28
2022-09-25T00:52:32.454Z,16.13
2022-09-25T00:55:05.652Z,16.09
2022-09-25T00:57:35.605Z,16.16
2022-09-25T01:00:06.811Z,16.05
2022-09-25T01:02:39.451Z,16.10
2022-09-25T01:05:09.705Z,15.97
2022-09-25T01:07:42.654Z,15.98
2022-09-25T01:10:12.096Z,15.83
2022-09-25T01:12:41.545Z,15.75
2022-09-25T01:15:11.569Z,15.57
2022-09-25T01:17:45.995Z,15.79
2022-09-25T01:20:24.174Z,15.44
2022-09-25T01:23:03.356Z,15.29
2022-09-25T01:25:45.865Z,15.48
2022-09-25T01:28:41.221Z,15.60
2022-09-25T01:31:17.433Z,15.69
2022-09-25T01:33:49.365Z,15.82
2022-09-25T01:36:24.992Z,15.67
2022-09-25T01:38:54.586Z,15.58
2022-09-25T01:41:27.298Z,15.50
2022-09-25T01:44:01.227Z,15.81
2022-09-25T01:46:32.041Z,15.94
2022-09-25T01:49:04.165Z,16.07
2022-09-25T01:51:36.816Z,16.11
2022-09-25T01:54:10.724Z,16.08
2022-09-25T01:56:43.224Z,15.80
2022-09-25T01:59:18.748Z,15.93
2022-09-25T02:01:48.106Z,15.75
2022-09-25T02:04:21.820Z,15.91
2022-09-25T02:06:51.654Z,15.99
2022-09-25T02:09:24.213Z,16.04
2022-09-25T02:11:57.180Z,16.04
2022-09-25T02:14:31.865Z,16.00
2022-09-25T02:17:01.291Z,15.71
2022-09-25T02:19:46.974Z,15.58
2022-09-25T02:22:20.771Z,15.77
2022-09-25T02:24:58.488Z,15.63
2022-09-25T02:27:29.372Z,15.66
2022-09-25T02:29:59.169Z,15.84
2022-09-25T02:32:30.782Z,16.00
2022-09-25T02:35:00.182Z,15.98
2022-09-25T02:37:27.797Z,15.99
2022-09-25T02:39:58.920Z,15.87
2022-09-25T02:42:33.707Z,15.80
2022-09-25T02:45:13.250Z,15.50
2022-09-25T02:47:49.882Z,15.43
2022-09-25T02:50:23.084Z,15.76
2022-09-25T02:52:58.634Z,15.96
2022-09-25T02:55:35.160Z,16.01
2022-09-25T02:58:08.090Z,16.03
2022-09-25T03:00:40.016Z,16.09
2022-09-25T03:03:09.867Z,16.07
2022-09-25T03:05:38.414Z,16.09
2022-09-25T03:08:24.016Z,15.75
2022-09-25T03:10:51.603Z,15.88
2022-09-25T03:13:21.172Z,15.92
2022-09-25T03:15:55.902Z,16.00
2022-09-25T03:18:23.477Z,16.07
2022-09-25T03:20:50.978Z,16.07
2022-09-25T03:23:18.472Z,16.02
2022-09-25T03:25:49.863Z,15.97
2022-09-25T03:28:17.697Z,15.88
2022-09-25T03:30:45.598Z,15.93
2022-09-25T03:33:14.541Z,15.90
2022-09-25T03:35:42.037Z,15.86
2022-09-25T03:38:10.411Z,15.93
2022-09-25T03:40:37.988Z,15.90
2022-09-25T03:45:32.028Z,15.74
2022-09-25T03:47:59.529Z,15.47
2022-09-25T03:50:28.641Z,15.56
2022-09-25T03:52:57.075Z,15.58
2022-09-25T03:55:26.027Z,15.71
2022-09-25T03:57:53.548Z,15.76
2022-09-25T04:00:21.031Z,15.80
2022-09-25T04:02:48.594Z,15.93
2022-09-25T04:05:16.342Z,16.00
2022-09-25T04:07:45.180Z,16.03
2022-09-25T04:10:12.745Z,16.00
2022-09-25T04:12:43.382Z,15.83
2022-09-25T04:15:11.487Z,15.43
2022-09-25T04:17:38.971Z,15.27
2022-09-25T04:20:07.500Z,15.43
2022-09-25T04:22:35.016Z,15.46
2022-09-25T04:25:04.014Z,15.66
2022-09-25T04:27:32.274Z,15.72
2022-09-25T04:30:01.719Z,15.83
2022-09-25T04:32:47.141Z,15.63
2022-09-25T04:35:14.780Z,15.66
2022-09-25T04:37:42.277Z,15.54
2022-09-25T04:40:12.021Z,15.57
2022-09-25T04:42:39.957Z,15.63
2022-09-25T04:45:07.972Z,15.69
2022-09-25T04:47:35.457Z,15.67
2022-09-25T04:50:02.949Z,15.75
2022-09-25T04:52:31.741Z,15.83
2022-09-25T04:55:00.083Z,15.83
2022-09-25T04:57:56.512Z,15.89
2022-09-25T05:00:19.224Z,15.99
2022-09-25T05:02:46.946Z,15.69
2022-09-25T05:05:15.183Z,15.44
2022-09-25T05:07:52.274Z,15.49
2022-09-25T05:10:20.658Z,15.35
2022-09-25T05:12:50.253Z,15.50
2022-09-25T05:15:17.894Z,15.50
2022-09-25T05:17:45.365Z,15.48
2022-09-25T05:20:12.849Z,15.48
2022-09-25T05:22:40.333Z,15.62
2022-09-25T05:25:09.624Z,15.35
2022-09-25T05:27:37.104Z,15.31
2022-09-25T05:30:09.451Z,15.45
2022-09-25T05:32:36.911Z,15.49
2022-09-25T05:35:04.718Z,14.77
2022-09-25T05:37:32.877Z,15.08
2022-09-25T05:40:00.360Z,15.11
2022-09-25T05:42:31.196Z,15.36
2022-09-25T05:45:01.171Z,15.50
2022-09-25T05:47:33.881Z,15.75
2022-09-25T05:50:01.397Z,15.93
2022-09-25T05:52:28.873Z,16.09
2022-09-25T05:54:56.524Z,16.09
2022-09-25T05:57:24.411Z,16.14
2022-09-25T05:59:51.906Z,16.19
2022-09-25T06:02:19.430Z,16.13
2022-09-25T06:04:48.301Z,16.05
2022-09-25T06:07:15.776Z,16.06
2022-09-25T06:09:43.286Z,16.05
2022-09-25T06:12:10.780Z,16.07
2022-09-25T06:14:38.277Z,15.97
2022-09-25T06:17:05.761Z,16.01
2022-09-25T06:19:33.777Z,16.13
2022-09-25T06:22:02.589Z,16.05
2022-09-25T06:24:30.079Z,16.05
2022-09-25T06:26:57.557Z,16.09
2022-09-25T06:29:25.030Z,16.20
2022-09-25T06:31:53.278Z,16.26
2022-09-25T06:34:20.764Z,16.28
2022-09-25T06:36:48.336Z,16.20
2022-09-25T06:39:17.260Z,16.12
2022-09-25T06:41:44.758Z,16.01
2022-09-25T06:44:12.295Z,15.93
2022-09-25T06:46:39.889Z,15.56
2022-09-25T06:49:07.427Z,15.50
2022-09-25T06:51:36.243Z,16.12
2022-09-25T06:54:03.869Z,16.03
2022-09-25T06:56:32.704Z,16.00
2022-09-25T06:59:00.190Z,15.54
2022-09-25T07:01:27.772Z,15.64
2022-09-25T07:03:54.452Z,16.65
2022-09-25T07:06:24.246Z,17.24
2022-09-25T07:08:52.191Z,16.85
2022-09-25T07:11:21.361Z,16.65
2022-09-25T07:13:55.178Z,16.79
2022-09-25T07:16:24.760Z,16.62
2022-09-25T07:18:54.462Z,16.80
2022-09-25T07:21:23.477Z,16.71
2022-09-25T07:23:52.170Z,16.90
2022-09-25T07:26:22.362Z,17.25
2022-09-25T07:28:55.763Z,17.10
2022-09-25T07:31:25.721Z,16.95
2022-09-25T07:33:53.714Z,16.44
2022-09-25T07:36:21.653Z,16.34
2022-09-25T07:38:52.743Z,15.85
2022-09-25T07:41:22.348Z,16.32
2022-09-25T07:44:17.634Z,16.59
2022-09-25T07:46:44.645Z,16.91
2022-09-25T07:49:12.690Z,17.17
2022-09-25T07:51:40.189Z,17.17
2022-09-25T07:54:08.180Z,17.48
2022-09-25T07:56:38.040Z,17.48
2022-09-25T07:59:07.088Z,17.33
2022-09-25T08:01:38.221Z,17.43
2022-09-25T08:04:08.621Z,17.28
2022-09-25T08:06:36.535Z,17.11
2022-09-25T08:09:09.516Z,17.23
2022-09-25T08:11:38.034Z,17.46
2022-09-25T08:14:07.020Z,17.52
2022-09-25T08:16:34.690Z,17.59
2022-09-25T08:19:02.168Z,17.53
2022-09-25T08:21:29.661Z,17.55
2022-09-25T08:23:57.426Z,17.55
2022-09-25T08:26:24.945Z,17.28
2022-09-25T08:28:52.701Z,16.79
2022-09-25T08:31:21.592Z,17.22
2022-09-25T08:33:50.933Z,17.14
2022-09-25T08:36:19.141Z,17.43
2022-09-25T08:38:46.683Z,17.45
2022-09-25T08:41:17.520Z,17.60
2022-09-25T08:43:53.450Z,17.87
2022-09-25T08:46:44.504Z,18.01
2022-09-25T08:49:14.149Z,18.15
2022-09-25T08:51:45.491Z,18.06
2022-09-25T08:54:19.371Z,17.66
2022-09-25T08:56:50.527Z,17.96
2022-09-25T08:59:26.823Z,17.98
2022-09-25T09:01:59.381Z,18.03
2022-09-25T09:04:31.978Z,17.89
2022-09-25T09:07:25.859Z,17.86
2022-09-25T09:10:01.647Z,18.11
2022-09-25T09:12:37.937Z,18.38
2022-09-25T09:15:19.610Z,18.48
2022-09-25T09:17:48.415Z,18.83
2022-09-25T09:20:19.414Z,19.12
2022-09-25T09:22:50.740Z,19.36
2022-09-25T09:25:29.072Z,19.54
2022-09-25T09:28:18.046Z,19.84
2022-09-25T09:30:54.482Z,19.93
2022-09-25T09:33:41.525Z,19.88
2022-09-25T09:36:16.981Z,20.17
2022-09-25T09:38:54.404Z,20.61
2022-09-25T09:41:40.847Z,21.15
2022-09-25T09:44:19.136Z,21.60
2022-09-25T09:46:59.035Z,21.33
2022-09-25T09:49:34.112Z,21.56
2022-09-25T09:52:05.982Z,21.82
2022-09-25T09:54:42.839Z,22.08
2022-09-25T09:57:18.884Z,22.09
2022-09-25T09:59:51.032Z,22.36
2022-09-25T10:02:31.728Z,22.21
2022-09-25T10:05:05.384Z,22.34
2022-09-25T10:07:36.729Z,22.46
2022-09-25T10:10:13.434Z,22.57
2022-09-25T10:12:45.859Z,22.57
2022-09-25T10:15:18.902Z,22.50
2022-09-25T10:17:47.069Z,21.85
2022-09-25T10:20:21.451Z,21.90
2022-09-25T10:22:56.380Z,21.93
2022-09-25T10:25:36.968Z,22.29
2022-09-25T10:28:24.119Z,22.26
2022-09-25T10:30:52.224Z,22.92
2022-09-25T10:33:22.289Z,23.12
2022-09-25T10:35:54.808Z,23.61
2022-09-25T10:38:33.023Z,24.58
2022-09-25T10:41:04.018Z,25.12
2022-09-25T10:43:31.886Z,25.64
2022-09-25T10:46:10.432Z,25.94
2022-09-25T10:48:56.751Z,25.47
2022-09-25T10:51:26.658Z,25.36
2022-09-25T10:54:11.383Z,25.68
2022-09-25T10:56:39.887Z,24.47
2022-09-25T10:59:14.829Z,24.09
2022-09-25T11:01:44.821Z,23.17
2022-09-25T11:04:16.837Z,23.57
2022-09-25T11:06:48.091Z,23.58
2022-09-25T11:09:19.581Z,22.63
2022-09-25T11:11:49.793Z,22.06
2022-09-25T11:14:33.027Z,22.38
2022-09-25T11:17:05.763Z,22.75
2022-09-25T11:19:35.826Z,22.83
2022-09-25T11:22:15.029Z,23.30
2022-09-25T11:24:54.817Z,23.07
2022-09-25T11:27:33.144Z,22.92
2022-09-25T11:30:06.159Z,21.93
2022-09-25T11:32:43.836Z,19.73
2022-09-25T11:35:22.582Z,19.97
2022-09-25T11:38:03.630Z,19.33
2022-09-25T11:41:03.057Z,18.86
2022-09-25T11:43:43.341Z,18.66
2022-09-25T11:46:21.447Z,19.18
2022-09-25T11:49:01.544Z,19.21
2022-09-25T11:51:46.501Z,19.24
2022-09-25T11:54:33.741Z,19.58
2022-09-25T11:57:07.574Z,20.03
2022-09-25T11:59:48.112Z,20.46
2022-09-25T12:02:24.248Z,20.63
2022-09-25T12:05:22.744Z,21.03
2022-09-25T12:08:12.258Z,20.38
2022-09-25T12:10:51.797Z,20.98
2022-09-25T12:13:31.891Z,21.12
2022-09-25T12:16:14.455Z,21.64
2022-09-25T12:18:56.993Z,21.39
2022-09-25T12:21:34.040Z,21.63
2022-09-25T12:24:09.751Z,21.74
2022-09-25T12:26:51.185Z,21.45
2022-09-25T12:29:31.742Z,21.41
2022-09-25T12:32:05.084Z,21.69
2022-09-25T12:34:50.683Z,22.06
2022-09-25T12:37:27.665Z,21.85
2022-09-25T12:39:59.140Z,21.99
2022-09-25T12:42:40.590Z,22.14
2022-09-25T12:45:16.925Z,22.12
2022-09-25T12:47:51.434Z,21.96
2022-09-25T12:50:23.193Z,21.43
2022-09-25T12:52:57.418Z,21.55
2022-09-25T12:55:31.399Z,21.35
2022-09-25T12:58:11.886Z,21.36
2022-09-25T13:00:43.744Z,20.74
2022-09-25T13:03:18.781Z,20.16
2022-09-25T13:05:52.112Z,19.75
2022-09-25T13:08:23.943Z,19.26
2022-09-25T13:10:55.031Z,19.17
2022-09-25T13:13:26.364Z,19.29
2022-09-25T13:15:58.124Z,19.02
2022-09-25T13:18:26.940Z,19.48
2022-09-25T13:20:56.082Z,19.75
2022-09-25T13:23:30.397Z,19.80
2022-09-25T13:26:01.150Z,20.08
2022-09-25T13:28:34.323Z,20.44
2022-09-25T13:31:10.036Z,20.92
2022-09-25T13:33:48.601Z,20.27
2022-09-25T13:36:39.613Z,20.22
2022-09-25T13:39:35.042Z,20.25
2022-09-25T13:42:06.565Z,20.75
2022-09-25T13:44:50.881Z,20.45
2022-09-25T13:47:44.357Z,19.93
2022-09-25T13:50:35.323Z,19.94
2022-09-25T13:53:28.042Z,19.72
2022-09-25T13:56:18.511Z,20.18
2022-09-25T13:59:19.700Z,20.31
2022-09-25T14:01:51.070Z,20.38
2022-09-25T14:04:28.849Z,20.34
2022-09-25T14:07:04.701Z,20.54
2022-09-25T14:09:33.772Z,20.48
2022-09-25T14:12:08.372Z,19.68
2022-09-25T14:14:45.238Z,19.54
2022-09-25T14:17:17.087Z,19.95
2022-09-25T14:19:48.292Z,19.87
2022-09-25T14:22:23.072Z,19.46
2022-09-25T14:24:50.625Z,19.17
2022-09-25T14:27:23.915Z,19.06
2022-09-25T14:29:51.491Z,18.88
2022-09-25T14:32:54.547Z,18.87
2022-09-25T14:35:36.856Z,19.51
2022-09-25T14:38:36.756Z,19.52
2022-09-25T14:41:22.512Z,19.29
2022-09-25T14:44:09.678Z,19.45
2022-09-25T14:46:37.693Z,19.85
2022-09-25T14:49:16.387Z,20.04
2022-09-25T14:51:47.126Z,19.73
2022-09-25T14:54:21.661Z,19.89
2022-09-25T14:56:51.935Z,20.32
2022-09-25T14:59:32.844Z,20.13
2022-09-25T15:02:03.235Z,20.21
2022-09-25T15:04:34.566Z,20.25
2022-09-25T15:07:05.896Z,19.59
2022-09-25T15:09:37.778Z,19.42
2022-09-25T15:12:18.936Z,19.32
2022-09-25T15:15:03.624Z,19.31
2022-09-25T15:17:32.884Z,19.23
2022-09-25T15:20:05.391Z,19.46
2022-09-25T15:22:36.859Z,19.42
2022-09-25T15:25:07.019Z,18.94
2022-09-25T15:27:36.949Z,18.97
2022-09-25T15:30:05.124Z,18.89
2022-09-25T15:32:39.496Z,18.78
2022-09-25T15:35:17.545Z,18.55
2022-09-25T15:37:45.975Z,18.54
2022-09-25T15:40:22.764Z,17.98
2022-09-25T15:42:50.823Z,18.27
2022-09-25T15:45:37.617Z,18.32
2022-09-25T15:48:13.964Z,18.05
2022-09-25T15:50:45.785Z,18.31
2022-09-25T15:53:22.261Z,17.96
2022-09-25T15:55:50.697Z,17.62
2022-09-25T15:58:21.841Z,18.22
2022-09-25T16:01:18.693Z,18.71
2022-09-25T16:04:09.426Z,18.62
2022-09-25T16:06:44.531Z,18.72
2022-09-25T16:09:22.945Z,18.62
2022-09-25T16:11:50.531Z,18.64
2022-09-25T16:14:22.470Z,18.28
2022-09-25T16:16:51.574Z,18.49
2022-09-25T16:19:30.599Z,18.52
2022-09-25T16:22:03.219Z,18.39
2022-09-25T16:24:31.668Z,17.94
2022-09-25T16:27:00.936Z,18.11
2022-09-25T16:29:30.723Z,17.95
2022-09-25T16:32:03.430Z,17.78
2022-09-25T16:34:33.602Z,17.97
2022-09-25T16:37:04.397Z,17.86
2022-09-25T16:39:35.015Z,18.05
2022-09-25T16:42:30.633Z,18.26
2022-09-25T16:45:03.971Z,18.07
2022-09-25T16:47:31.835Z,17.96
2022-09-25T16:49:59.263Z,17.88
2022-09-25T16:52:32.060Z,17.80
2022-09-25T16:55:00.971Z,17.33
2022-09-25T16:57:29.194Z,17.50
2022-09-25T16:59:56.661Z,17.61
2022-09-25T17:02:33.110Z,17.48
2022-09-25T17:05:03.269Z,17.37
2022-09-25T17:07:32.239Z,17.04
2022-09-25T17:10:00.922Z,17.36
2022-09-25T17:12:30.228Z,17.44
2022-09-25T17:14:57.969Z,17.31
2022-09-25T17:17:25.424Z,17.40
2022-09-25T17:19:52.881Z,17.36
2022-09-25T17:22:20.368Z,17.39
2022-09-25T17:24:49.149Z,17.35
2022-09-25T17:27:17.234Z,17.17
2022-09-25T17:29:46.578Z,17.13
2022-09-25T17:32:15.291Z,17.06
2022-09-25T17:34:44.804Z,16.89
2022-09-25T17:37:12.546Z,16.47
2022-09-25T17:39:40.172Z,16.51
2022-09-25T17:42:11.438Z,16.61
2022-09-25T17:44:40.529Z,16.29
2022-09-25T17:47:09.912Z,16.05
2022-09-25T17:49:37.389Z,16.16
2022-09-25T17:52:05.026Z,16.01
2022-09-25T17:54:32.488Z,15.70
2022-09-25T17:56:59.951Z,15.68
2022-09-25T17:59:28.786Z,15.66
2022-09-25T18:01:59.506Z,15.55
2022-09-25T18:04:27.354Z,15.45
2022-09-25T18:06:56.524Z,15.02
2022-09-25T18:09:24.101Z,15.40
2022-09-25T18:11:52.533Z,15.09
2022-09-25T18:14:19.986Z,14.97
2022-09-25T18:16:48.763Z,15.24
2022-09-25T18:19:35.287Z,15.00
2022-09-25T18:22:18.969Z,14.74
2022-09-25T18:24:46.910Z,15.01
2022-09-25T18:27:16.335Z,14.99
2022-09-25T18:29:44.546Z,15.16
2022-09-25T18:32:13.528Z,15.06
2022-09-25T18:34:41.552Z,15.35
2022-09-25T18:37:09.525Z,15.61
2022-09-25T18:39:37.208Z,15.81
2022-09-25T18:42:05.027Z,15.95
2022-09-25T18:44:37.248Z,15.91
2022-09-25T18:47:09.100Z,16.09
2022-09-25T18:49:38.129Z,16.10
2022-09-25T18:52:06.053Z,16.12
2022-09-25T18:54:34.075Z,16.15
2022-09-25T18:57:01.601Z,16.05
2022-09-25T18:59:29.155Z,15.76
2022-09-25T19:01:56.879Z,15.86
2022-09-25T19:04:25.717Z,15.72
2022-09-25T19:06:54.584Z,15.63
2022-09-25T19:09:24.221Z,15.67
2022-09-25T19:11:51.731Z,15.65
2022-09-25T19:14:19.854Z,15.42
2022-09-25T19:16:48.132Z,15.44
2022-09-25T19:19:15.777Z,15.47
2022-09-25T19:21:44.678Z,15.64
2022-09-25T19:24:13.714Z,15.72
2022-09-25T19:26:42.669Z,15.73
2022-09-25T19:29:10.331Z,15.78
2022-09-25T19:31:38.122Z,15.84
2022-09-25T19:34:05.705Z,15.89
2022-09-25T19:36:35.542Z,15.93
2022-09-25T19:39:04.324Z,15.90
2022-09-25T19:41:35.387Z,15.98
2022-09-25T19:44:11.902Z,16.00
2022-09-25T19:46:41.536Z,16.02
2022-09-25T19:49:09.856Z,16.08
2022-09-25T19:51:38.082Z,16.12
2022-09-25T19:54:05.761Z,15.96
2022-09-25T19:56:34.666Z,15.82
2022-09-25T19:59:06.963Z,15.98
2022-09-25T20:01:34.700Z,16.02
2022-09-25T20:04:06.608Z,16.05
2022-09-25T20:06:36.583Z,15.84
2022-09-25T20:09:05.252Z,15.46
2022-09-25T20:11:35.719Z,15.15
2022-09-25T20:14:04.462Z,14.61
2022-09-25T20:16:32.456Z,14.61
2022-09-25T20:19:02.692Z,14.31
2022-09-25T20:21:32.802Z,13.83
2022-09-25T20:24:03.043Z,14.18
2022-09-25T20:26:31.392Z,14.26
2022-09-25T20:29:01.989Z,14.45
2022-09-25T20:31:32.490Z,14.65
2022-09-25T20:34:00.096Z,14.88
2022-09-25T20:36:28.157Z,14.33
2022-09-25T20:38:57.639Z,14.38
2022-09-25T20:41:27.170Z,14.01
2022-09-25T20:43:57.863Z,13.92
2022-09-25T20:46:28.024Z,14.03
2022-09-25T20:48:57.664Z,14.01
2022-09-25T20:51:27.855Z,13.84
2022-09-25T20:53:57.253Z,14.14
2022-09-25T20:56:25.472Z,14.58
2022-09-25T20:58:54.959Z,14.87
2022-09-25T21:01:24.197Z,15.03
2022-09-25T21:03:53.345Z,15.07
2022-09-25T21:06:22.451Z,15.18
2022-09-25T21:08:52.399Z,15.21
2022-09-25T21:11:20.317Z,14.99
2022-09-25T21:13:50.650Z,15.32
2022-09-25T21:16:18.955Z,15.20
2022-09-25T21:18:53.803Z,15.11
2022-09-25T21:21:21.279Z,15.26
2022-09-25T21:23:50.695Z,15.09
2022-09-25T21:26:19.459Z,14.91
2022-09-25T21:28:51.442Z,15.05
2022-09-25T21:31:20.296Z,15.11
2022-09-25T21:33:48.359Z,14.86
2022-09-25T21:36:18.419Z,14.36
2022-09-25T21:38:45.892Z,13.76
2022-09-25T21:41:15.456Z,13.07
2022-09-25T21:43:43.648Z,12.93
2022-09-25T21:46:14.170Z,12.71
2022-09-25T21:48:44.802Z,12.54
2022-09-25T21:51:14.143Z,12.59
2022-09-25T21:53:43.194Z,12.53
2022-09-25T21:56:12.489Z,12.57
2022-09-25T21:58:40.333Z,12.55
2022-09-25T22:01:10.251Z,12.54
2022-09-25T22:03:39.747Z,12.73
2022-09-25T22:06:09.893Z,12.80
2022-09-25T22:08:39.431Z,12.74
2022-09-25T22:11:08.700Z,12.57
2022-09-25T22:13:38.011Z,12.72
2022-09-25T22:16:07.079Z,12.65
2022-09-25T22:18:35.800Z,12.44
2022-09-25T22:21:03.261Z,12.37
2022-09-25T22:23:30.741Z,12.58
2022-09-25T22:26:02.225Z,12.48
2022-09-25T22:28:31.037Z,12.57
2022-09-25T22:30:58.567Z,12.54
2022-09-25T22:33:26.028Z,12.55
2022-09-25T22:35:59.291Z,12.70
2022-09-25T22:38:27.053Z,12.64
2022-09-25T22:40:54.635Z,12.56
2022-09-25T22:43:22.573Z,12.42
2022-09-25T22:45:52.370Z,12.18
2022-09-25T22:48:20.713Z,12.18
2022-09-25T22:50:53.945Z,12.23
2022-09-25T22:53:21.636Z,12.72
2022-09-25T22:55:49.703Z,12.79
2022-09-25T22:58:19.019Z,12.67
2022-09-25T23:00:50.891Z,12.51
2022-09-25T23:03:20.399Z,12.27
2022-09-25T23:05:48.734Z,12.46
2022-09-25T23:08:16.672Z,12.44
2022-09-25T23:11:06.185Z,12.45
2022-09-25T23:13:32.027Z,12.54
2022-09-25T23:16:04.117Z,12.75
2022-09-25T23:18:34.166Z,12.56
2022-09-25T23:21:01.634Z,12.41
2022-09-25T23:23:29.107Z,12.39
2022-09-25T23:26:01.702Z,12.62
2022-09-25T23:28:29.154Z,12.34
2022-09-25T23:30:56.762Z,12.52
2022-09-25T23:33:24.249Z,12.45
2022-09-25T23:35:53.007Z,12.50
2022-09-25T23:38:20.496Z,12.41
2022-09-25T23:40:48.023Z,12.72
2022-09-25T23:43:17.405Z,12.48
2022-09-25T23:45:44.970Z,12.22
2022-09-25T23:48:12.500Z,12.36
2022-09-25T23:50:40.009Z,12.07
2022-09-25T23:53:08.910Z,12.17
2022-09-25T23:55:39.773Z,12.22
2022-09-25T23:58:07.248Z,12.31
